Latest Coastal Weather Observations for Gove Airport

IDD60701

Issued at 9:45 am CST Tuesday 2 September 2014 (issued every 10 minutes, with the page automatically refreshed every 10 minutes)

About coastal observations | Map of coastal stations | Coastal observations for NT | Marine services | Other Formats
Station Details ID: 014508 Name: GOVE AIRPORT Lat: -12.27 Lon: 136.82 Height: 51.6 m
Data from the previous 72 hours. | See also: Recent months at Gove Airport
Date/Time
CST
Temp

°C
Wind Pressure Rain
since 9am
mm
Weather Cloud Vis
km
Sea
Height
m
Swell
Dir
 
Speed
knots
Gust
knots
hPa Trend Height
m
Period
s
Dir
02/09:30am 26.6 ESE 14 20 1016.2 - 0.0 - Mostly clear 10 - - - -
02/08:30am 23.2 SE 6 8 1015.6 - - - Mostly clear 10 - - - -
02/08:00am 21.2 S 5 7 1015.1 - - - Mostly clear 10 - - - -
02/07:30am 18.3 CALM 0 0 1014.6 - - - - 10 - - - -
02/07:00am 15.3 CALM 0 0 1014.2 - - Fog patches Mostly clear 2 - - - -
02/06:30am 14.7 S 0 0 1014.0 - - Fog Mostly clear 0.8 - - - -
02/06:00am 15.3 CALM 0 0 1013.6 F - Fog patches Mostly clear 2 - - - -
02/05:48am 15.3 S 0 0 1013.9 - - - - 10 - - - -
02/05:30am 15.5 CALM 0 0 1013.8 - - - - 5 - - - -
02/05:28am 15.6 CALM 0 0 1013.8 - - - Partly cloudy 6 - - - -
02/05:24am 15.7 S 1 3 1013.8 - - - Partly cloudy 9 - - - -
02/05:23am 15.7 S 1 3 1013.8 - - - Partly cloudy 9 - - - -
02/05:00am 16.4 CALM 0 0 1013.8 - - - Partly cloudy 0.2 - - - -
02/04:52am 16.3 CALM 0 0 1013.8 - - - Partly cloudy 0.1 - - - -
02/04:30am 16.6 S 0 0 1013.9 - - - Partly cloudy 1 - - - -
02/04:00am 17.4 CALM 0 0 1014.0 - - - - 3 - - - -
02/03:51am 17.6 CALM 0 0 1014.0 - - - - 6 - - - -
02/03:30am 18.0 CALM 0 0 1014.1 - - - - 10 - - - -
02/03:00am 18.5 S 3 5 1014.2 - 0.0 - - 9 - - - -
02/02:30am 19.0 S 3 5 1014.6 - - - - 10 - - - -
02/02:00am 19.8 S 4 5 1014.6 - - - - 10 - - - -
02/01:30am 20.2 S 4 5 1014.8 - - - - 9 - - - -
02/01:00am 20.5 S 4 5 1014.9 - - - - 9 - - - -
02/12:30am 20.8 SSE 5 6 1015.2 - - - Partly cloudy 10 - - - -
02/12:00am 21.0 S 6 7 1015.1 - - - Cloudy 10 - - - -
 
Date/Time
CST
Temp

°C
Wind Pressure Rain
since 9am
mm
Weather Cloud Vis
km
Sea
Height
m
Swell
Dir
 
Speed
knots
Gust
knots
hPa Trend Height
m
Period
s
Dir
01/11:30pm 20.9 S 5 6 1015.4 - - - - 10 - - - -
01/11:00pm 21.3 S 5 6 1015.3 - - - - 10 - - - -
01/10:30pm 21.2 SSE 5 6 1015.4 - - - - 10 - - - -
01/10:00pm 21.6 SSE 5 7 1015.4 - - - Mostly clear 10 - - - -
01/09:30pm 21.9 ENE 5 7 1015.2 - - - Mostly clear 10 - - - -
01/09:00pm 22.0 E 5 7 1014.8 R 0.0 Fine Partly cloudy 18 - - - -
01/08:30pm 22.4 SE 6 8 1014.9 - - - Mostly clear 10 - - - -
01/08:00pm 22.9 ESE 6 9 1014.5 - - - Partly cloudy 10 - - - -
01/07:30pm 22.9 ESE 6 8 1013.9 - - - Mostly clear 10 - - - -
01/07:27pm 23.0 ESE 6 8 1013.9 - - - Partly cloudy 10 - - - -
01/07:00pm 23.2 ESE 6 8 1013.5 - - - Partly cloudy 10 - - - -
01/06:30pm 23.4 ESE 7 9 1013.2 - - - Partly cloudy 10 - - - -
01/06:00pm 23.9 ESE 9 13 1012.6 R - Smoke Mostly cloudy 20 - - - -
01/05:30pm 24.7 SE 9 12 1012.8 - - - Mostly clear 10 - - - -
01/05:00pm 25.4 ENE 12 16 1012.7 - - - Mostly clear 10 - - - -
01/04:30pm 26.0 ESE 10 13 1012.4 - - - Mostly clear 10 - - - -
01/03:30pm 26.4 E 11 14 1012.3 - 0.0 - Mostly clear 10 - - - -
01/03:00pm 28.4 SE 11 15 1012.1 R 0.0 Smoke Mostly cloudy 22 - - - -
01/02:30pm 28.8 ESE 11 17 1012.6 - 0.0 - - 10 - - - -
01/02:00pm 28.8 E 13 18 1012.8 - 0.0 - - 10 - - - -
01/01:30pm 28.4 E 14 19 1013.2 - 0.0 - - 10 - - - -
01/01:00pm 28.6 E 13 17 1013.6 - 0.0 - - 10 - - - -
01/12:30pm 28.3 ESE 13 17 1014.1 - 0.0 - - 10 - - - -
01/12:00pm 28.0 ESE 15 21 1014.1 R 0.0 Smoke Partly cloudy 24 - - - -
01/11:30am 28.3 ESE 14 21 1014.8 - 0.0 - Mostly clear 10 - - - -
01/11:00am 27.9 ESE 12 17 1014.9 - 0.0 - - 10 - - - -
01/10:30am 28.0 SE 12 17 1015.3 - 0.0 - - 10 - - - -
01/10:00am 27.6 SE 12 17 1015.4 - 0.0 - - 10 - - - -
01/09:30am 27.5 SE 11 14 1015.4 - 0.0 - - 10 - - - -
01/09:00am 26.1 SE 10 14 1015.1 R 0.0 Fine Partly cloudy 24 - - - -
01/08:30am 24.5 SSE 7 8 1015.1 - 0.0 - - 10 - - - -
01/08:00am 22.5 SSE 5 6 1014.6 - 0.0 - Mostly clear 10 - - - -
01/07:30am 17.9 SSE 3 5 1014.3 - 0.0 - Mostly clear 10 - - - -
01/07:00am 14.9 CALM 0 0 1013.8 - 0.0 - Mostly clear 10 - - - -
01/06:30am 13.7 NNE 2 4 1013.4 - 0.0 - Mostly clear 10 - - - -
01/06:00am 14.2 SSE 3 4 1012.8 F 0.0 Fine Mostly clear 26 - - - -
01/05:30am 14.9 SE 4 6 1012.8 - 0.0 - - 10 - - - -
01/05:00am 14.9 CALM 0 3 1012.7 - 0.0 - - 10 - - - -
01/04:30am 15.2 CALM 0 0 1012.6 - 0.0 - - 10 - - - -
01/04:15am 15.2 CALM 0 0 1012.7 - 0.0 - - 10 - - - -
01/04:00am 15.7 CALM 0 0 1012.7 - 0.0 - - 4 - - - -
01/03:49am 16.6 CALM 0 0 1012.7 - 0.0 - - 5 - - - -
01/03:30am 17.6 E 3 3 1013.0 - 0.0 - - 8 - - - -
01/03:00am 18.1 CALM 0 0 1012.9 - 0.0 - - 9 - - - -
01/02:30am 18.2 E 1 3 1013.3 - 0.0 - - 10 - - - -
01/02:03am 18.5 N 1 4 1013.5 - 0.0 - - 10 - - - -
01/02:00am 18.8 N 1 4 1013.6 - 0.0 - - 10 - - - -
01/01:42am 18.2 CALM 0 0 1013.8 - 0.0 - - 4 - - - -
01/01:30am 19.7 N 3 5 1014.0 - 0.0 - - 10 - - - -
01/01:00am 20.1 S 6 7 1014.2 - 0.0 - - 10 - - - -
01/12:30am 20.2 SSE 6 7 1014.4 - 0.0 - - 10 - - - -
01/12:00am 20.4 NNE 5 6 1014.0 - 0.0 - - 10 - - - -
 
Date/Time
CST
Temp

°C
Wind Pressure Rain
since 9am
mm
Weather Cloud Vis
km
Sea
Height
m
Swell
Dir
 
Speed
knots
Gust
knots
hPa Trend Height
m
Period
s
Dir
31/11:30pm 20.6 NE 5 6 1014.4 - 0.0 - Partly cloudy 10 - - - -
31/11:00pm 20.8 SE 6 7 1014.4 - 0.0 - - 10 - - - -
31/10:30pm 21.1 SE 6 7 1014.4 - 0.0 - Partly cloudy 10 - - - -
31/10:00pm 21.3 ESE 5 6 1014.5 - 0.0 - Mostly clear 10 - - - -
31/09:30pm 22.0 NE 5 7 1014.3 - 0.0 - Mostly clear 10 - - - -
31/09:00pm 22.7 ESE 7 10 1013.7 R 0.0 Fine Mostly clear 23 - - - -
31/08:30pm 22.6 SE 8 10 1013.8 - 0.0 - Mostly clear 10 - - - -
31/08:00pm 22.8 ESE 7 10 1013.6 - 0.0 - Mostly clear 10 - - - -
31/07:30pm 22.7 SE 6 8 1013.1 - 0.0 - Mostly clear 10 - - - -
31/07:00pm 23.2 SE 7 9 1012.6 - 0.0 - Mostly clear 10 - - - -
31/06:30pm 23.6 SE 8 14 1012.3 - 0.0 - Mostly clear 10 - - - -
31/06:00pm 24.4 SE 8 12 1011.5 F 0.0 Fine Mostly clear 22 - - - -
31/05:30pm 25.3 ENE 11 15 1011.7 - 0.0 - Mostly clear 10 - - - -
31/05:00pm 26.0 NNE 10 13 1011.5 - 0.0 - Partly cloudy 10 - - - -
31/04:30pm 26.9 ESE 9 12 1011.3 - 0.0 - Partly cloudy 10 - - - -
31/04:00pm 27.1 ENE 11 16 1011.3 - 0.0 - Partly cloudy 10 - - - -
31/03:30pm 27.3 NE 11 14 1011.2 - 0.0 - Partly cloudy 10 - - - -
31/03:00pm 26.4 ESE 11 14 1011.2 F 0.0 Fine Partly cloudy 22 - - - -
31/02:30pm 26.5 ESE 13 16 1011.7 - 0.0 - Partly cloudy 10 - - - -
31/02:00pm 27.3 ESE 12 15 1011.9 - 0.0 - Partly cloudy 10 - - - -
31/01:30pm 27.5 E 13 17 1012.2 - 0.0 - Partly cloudy 10 - - - -
31/01:00pm 27.2 E 13 17 1012.6 - 0.0 - Partly cloudy 10 - - - -
31/12:30pm 28.2 ESE 12 16 1013.2 - 0.0 - Partly cloudy 10 - - - -
31/12:00pm 28.0 E 12 16 1013.3 F 0.0 Fine Partly cloudy 23 - - - -
31/11:30am 27.8 ESE 12 17 1014.0 - 0.0 - Mostly clear 10 - - - -
31/11:00am 28.1 ESE 11 19 1014.5 - 0.0 - Mostly clear 10 - - - -
31/10:30am 27.7 ESE 14 19 1014.8 - 0.0 - Mostly clear 10 - - - -
31/10:00am 27.5 E 12 17 1015.0 - 0.0 - Mostly clear 10 - - - -
31/09:30am 26.8 ESE 13 20 1015.2 - 0.0 - Mostly clear 10 - - - -
31/09:00am 26.0 ESE 9 13 1014.9 R 0.0 Haze Partly cloudy 18 - - - -
31/08:30am 24.1 ESE 6 7 1014.9 - 0.0 - - 10 - - - -
31/08:00am 22.5 ESE 4 6 1014.5 - 0.0 - - 10 - - - -
31/07:30am 19.9 CALM 0 0 1014.2 - 0.0 - - 10 - - - -
31/07:00am 17.1 CALM 0 0 1014.0 - 0.0 - Mostly clear 4 - - - -
31/06:46am 16.1 CALM 0 0 1013.7 - 0.0 Fog patches Mostly clear 8 - - - -
31/06:30am 15.9 SE 4 4 1013.5 - 0.0 Fog patches Partly cloudy 6 - - - -
31/06:22am 16.2 SSE 3 4 1013.4 - 0.0 Fog patches Partly cloudy 7 - - - -
31/06:16am 16.4 SSE 3 4 1013.4 - 0.0 - - 8 - - - -
31/06:00am 16.7 CALM 0 0 1013.1 F 0.0 Shallow fog Mostly clear 5 - - - -
31/05:30am 17.1 E 1 4 1013.2 - 0.0 - - 6 - - - -
31/05:25am 17.0 E 2 3 1013.1 - 0.0 - - 6 - - - -
31/05:00am 18.3 S 5 6 1013.0 - 0.0 - - 10 - - - -
31/04:57am 18.4 S 5 6 1013.0 - 0.0 - - 10 - - - -
31/04:32am 16.6 S 1 4 1013.0 - 0.0 - - 5 - - - -
31/04:30am 16.7 CALM 0 4 1013.0 - 0.0 - - 9 - - - -
31/04:00am 17.0 S 3 3 1013.2 - 0.0 - - 10 - - - -
31/03:41am 17.6 CALM 0 0 1013.3 - 0.0 - - 10 - - - -
31/03:30am 17.9 CALM 0 0 1013.2 - 0.0 - - 3 - - - -
31/03:12am 18.1 S 2 4 1013.2 - 0.0 - - 6 - - - -
31/03:00am 18.4 S 1 3 1012.9 - 0.0 - - 10 - - - -
31/02:30am 19.5 SSW 4 5 1013.4 - 0.0 - - 10 - - - -
31/02:00am 19.7 SSW 4 4 1013.5 - 0.0 - - 8 - - - -
31/01:30am 20.3 SSW 5 6 1013.7 - 0.0 - - 10 - - - -
31/01:00am 20.7 S 4 4 1014.0 - 0.0 - - 10 - - - -
31/12:30am 21.3 S 4 5 1014.2 - 0.0 - Partly cloudy 10 - - - -
31/12:00am 21.4 SSE 5 6 1014.1 - 0.0 - Cloudy 10 - - - -
 
Date/Time
CST
Temp

°C
Wind Pressure Rain
since 9am
mm
Weather Cloud Vis
km
Sea
Height
m
Swell
Dir
 
Speed
knots
Gust
knots
hPa Trend Height
m
Period
s
Dir
30/11:30pm 21.6 SSE 5 6 1014.6 - 0.0 - Partly cloudy 10 - - - -
30/11:00pm 21.7 SE 5 7 1014.5 - 0.0 - Partly cloudy 10 - - - -
30/10:30pm 21.7 ENE 6 7 1014.4 - 0.0 - Partly cloudy 10 - - - -
30/10:00pm 21.5 SE 6 7 1014.5 - 0.0 - Mostly clear 10 - - - -
30/09:30pm 21.7 SSE 5 7 1014.4 - 0.0 - Mostly clear 10 - - - -
30/09:00pm 21.9 SE 7 9 1014.0 F 0.0 Fine Mostly clear 22 - - - -
30/08:30pm 22.2 SSE 7 10 1014.2 - 0.0 - Mostly clear 10 - - - -
30/08:00pm 22.3 SE 7 10 1014.0 - 0.0 - Mostly clear 10 - - - -
30/07:30pm 22.1 ESE 7 9 1013.7 - 0.0 - Mostly clear 10 - - - -
30/07:00pm 22.2 SSE 7 9 1013.5 - 0.0 - Mostly clear 10 - - - -
30/06:30pm 22.6 SSE 8 13 1013.2 - 0.0 - Mostly clear 10 - - - -
30/06:00pm 23.2 SSE 8 12 1012.7 R 0.0 Fine Mostly clear 22 - - - -
30/05:30pm 23.9 ESE 10 13 1012.7 - 0.0 - Mostly clear 10 - - - -
30/05:00pm 24.1 ESE 9 11 1012.3 - 0.0 - Partly cloudy 10 - - - -
30/04:30pm 25.4 S 10 13 1012.3 - 0.0 - Mostly clear 10 - - - -
30/04:00pm 26.4 ESE 9 13 1012.2 - 0.0 - Mostly clear 10 - - - -
30/03:30pm 26.5 E 10 15 1012.4 - 0.0 - Partly cloudy 10 - - - -
30/03:00pm 26.6 ENE 10 14 1012.1 F 0.0 Smoke Mostly clear 20 - - - -
30/02:30pm 26.6 SE 11 16 1012.7 - 0.0 - Mostly clear 10 - - - -
30/02:00pm 27.3 ESE 11 18 1013.1 - 0.0 - Mostly clear 10 - - - -
30/01:30pm 27.3 SSE 11 15 1013.4 - 0.0 - Mostly clear 10 - - - -
30/01:00pm 27.3 ESE 11 16 1013.9 - 0.0 - Mostly clear 10 - - - -
30/12:30pm 27.4 ESE 12 17 1014.5 - 0.0 - Mostly clear 10 - - - -
30/12:00pm 27.4 E 10 15 1014.6 F 0.0 Fine Mostly clear 23 - - - -
30/11:30am 27.4 ESE 10 17 1015.3 - 0.0 - Mostly clear 10 - - - -
30/11:00am 27.7 ESE 10 17 1015.7 - 0.0 - Mostly clear 10 - - - -
30/10:30am 26.5 ESE 10 18 1016.1 - 0.0 - Mostly clear 10 - - - -
30/10:00am 26.4 NNE 9 14 1016.2 - 0.0 - Mostly clear 10 - - - -

Other Formats:

Comma delimited format used in spreadsheet applications
http://www.bom.gov.au/fwo/IDD60701/IDD60701.94150.axf

JavaScript Object Notation format (JSON) in row-major order
http://www.bom.gov.au/fwo/IDD60701/IDD60701.94150.json